createdAt,value
2019-01-18T00:01:15.502Z,0.90
2019-01-18T00:03:43.144Z,0.80
2019-01-18T00:06:10.812Z,0.80
2019-01-18T00:08:38.490Z,0.80
2019-01-18T00:11:06.117Z,0.80
2019-01-18T00:13:33.808Z,0.80
2019-01-18T00:16:01.446Z,0.80
2019-01-18T00:18:29.239Z,0.70
2019-01-18T00:20:56.860Z,0.70
2019-01-18T00:23:24.502Z,0.70
2019-01-18T00:25:52.226Z,0.70
2019-01-18T00:28:19.908Z,0.70
2019-01-18T00:30:47.598Z,0.60
2019-01-18T00:33:15.227Z,0.60
2019-01-18T00:35:42.992Z,0.60
2019-01-18T00:38:10.691Z,0.50
2019-01-18T00:40:38.290Z,0.40
2019-01-18T00:43:05.994Z,0.40
2019-01-18T00:45:33.675Z,0.30
2019-01-18T00:48:01.345Z,0.30
2019-01-18T00:50:28.960Z,0.20
2019-01-18T00:52:56.655Z,0.20
2019-01-18T00:55:24.295Z,0.10
2019-01-18T00:57:51.996Z,0.10
2019-01-18T01:00:22.247Z,0.00
2019-01-18T01:02:49.941Z,0.00
2019-01-18T01:05:18.031Z,-0.10
2019-01-18T01:07:45.795Z,-0.10
2019-01-18T01:10:13.558Z,0.30
2019-01-18T01:12:41.306Z,-0.20
2019-01-18T01:15:12.289Z,-0.30
2019-01-18T01:17:40.249Z,-0.30
2019-01-18T01:20:09.032Z,-0.30
2019-01-18T01:22:36.649Z,-0.30
2019-01-18T01:25:04.745Z,-0.40
2019-01-18T01:27:32.588Z,-0.50
2019-01-18T01:30:00.222Z,-0.50
2019-01-18T01:32:27.939Z,-0.60
2019-01-18T01:34:55.612Z,-0.60
2019-01-18T01:37:23.251Z,-0.20
2019-01-18T01:39:51.055Z,-0.50
2019-01-18T01:42:18.779Z,-0.80
2019-01-18T01:44:46.450Z,-0.80
2019-01-18T01:47:14.141Z,-0.90
2019-01-18T01:49:41.795Z,-0.90
2019-01-18T01:52:09.455Z,-0.90
2019-01-18T01:54:37.557Z,-1.00
2019-01-18T01:57:05.243Z,-1.00
2019-01-18T01:59:32.868Z,-1.00
2019-01-18T02:02:00.555Z,-1.10
2019-01-18T02:04:28.278Z,-1.10
2019-01-18T02:06:56.069Z,-1.10
2019-01-18T02:09:23.717Z,-0.90
2019-01-18T02:11:51.336Z,-0.70
2019-01-18T02:14:19.028Z,-1.10
2019-01-18T02:16:46.656Z,-1.00
2019-01-18T02:19:14.400Z,-1.00
2019-01-18T02:21:42.035Z,-1.00
2019-01-18T02:24:09.721Z,-1.00
2019-01-18T02:26:37.386Z,-0.90
2019-01-18T02:29:05.056Z,-0.90
2019-01-18T02:31:32.707Z,-0.80
2019-01-18T02:34:00.386Z,-0.80
2019-01-18T02:36:28.031Z,-0.70
2019-01-18T02:38:55.685Z,-0.70
2019-01-18T02:41:23.332Z,-0.60
2019-01-18T02:43:51.025Z,-0.60
2019-01-18T02:46:18.673Z,-0.50
2019-01-18T02:48:46.349Z,-0.50
2019-01-18T02:51:14.007Z,-0.40
2019-01-18T02:53:41.675Z,-0.40
2019-01-18T02:56:09.394Z,-0.40
2019-01-18T02:58:37.048Z,-0.40
2019-01-18T03:01:04.665Z,-0.40
2019-01-18T03:03:32.427Z,-0.30
2019-01-18T03:06:00.112Z,-0.40
2019-01-18T03:08:27.708Z,-0.50
2019-01-18T03:10:55.392Z,-0.30
2019-01-18T03:13:23.047Z,-0.50
2019-01-18T03:15:50.697Z,-0.50
2019-01-18T03:18:18.331Z,-0.20
2019-01-18T03:20:45.989Z,-0.30
2019-01-18T03:23:13.627Z,-0.70
2019-01-18T03:25:41.299Z,-0.70
2019-01-18T03:28:08.917Z,-0.60
2019-01-18T03:30:36.608Z,-0.40
2019-01-18T03:33:04.249Z,-0.40
2019-01-18T03:35:31.893Z,-0.90
2019-01-18T03:37:59.571Z,-0.90
2019-01-18T03:40:27.244Z,-0.90
2019-01-18T03:42:54.913Z,-1.00
2019-01-18T03:45:22.563Z,-1.00
2019-01-18T03:47:50.456Z,-1.00
2019-01-18T03:50:20.096Z,-1.10
2019-01-18T03:52:47.788Z,-1.10
2019-01-18T03:55:15.483Z,-1.20
2019-01-18T03:57:43.228Z,-1.20
2019-01-18T04:00:16.208Z,-1.30
2019-01-18T04:02:43.851Z,-1.30
2019-01-18T04:05:12.015Z,-1.30
2019-01-18T04:07:39.710Z,-1.30
2019-01-18T04:10:09.192Z,-1.40
2019-01-18T04:12:36.860Z,-1.00
2019-01-18T04:15:07.214Z,-1.50
2019-01-18T04:17:34.875Z,-1.50
2019-01-18T04:20:02.947Z,-1.20
2019-01-18T04:22:30.620Z,-1.60
2019-01-18T04:24:58.248Z,-1.60
2019-01-18T04:27:25.914Z,-1.60
2019-01-18T04:29:53.569Z,-1.70
2019-01-18T04:32:21.324Z,-1.70
2019-01-18T04:34:48.958Z,-1.70
2019-01-18T04:37:16.647Z,-1.70
2019-01-18T04:39:44.287Z,-1.70
2019-01-18T04:42:12.105Z,-1.50
2019-01-18T04:44:39.775Z,-1.80
2019-01-18T04:47:07.422Z,-1.80
2019-01-18T04:49:35.068Z,-1.80
2019-01-18T04:52:02.836Z,-1.80
2019-01-18T04:54:31.560Z,-1.80
2019-01-18T04:56:59.245Z,-1.80
2019-01-18T04:59:26.962Z,-1.90
2019-01-18T05:01:54.735Z,-1.90
2019-01-18T05:04:22.529Z,-1.60
2019-01-18T05:06:50.184Z,-1.90
2019-01-18T05:09:17.893Z,-1.90
2019-01-18T05:11:45.682Z,-1.60
2019-01-18T05:14:13.304Z,-2.00
2019-01-18T05:16:41.172Z,-2.00
2019-01-18T05:19:08.855Z,-2.00
2019-01-18T05:21:36.507Z,-1.90
2019-01-18T05:24:04.186Z,-2.00
2019-01-18T05:26:31.864Z,-2.00
2019-01-18T05:28:59.506Z,-2.00
2019-01-18T05:31:27.147Z,-2.00
2019-01-18T05:33:54.841Z,-2.00
2019-01-18T05:36:22.487Z,-2.00
2019-01-18T05:38:50.208Z,-1.80
2019-01-18T05:41:17.844Z,-2.00
2019-01-18T05:43:45.531Z,-2.00
2019-01-18T05:46:13.188Z,-2.00
2019-01-18T05:48:41.020Z,-2.00
2019-01-18T05:51:08.631Z,-2.00
2019-01-18T05:53:36.371Z,-2.00
2019-01-18T05:56:04.151Z,-2.00
2019-01-18T05:58:31.823Z,-2.00
2019-01-18T06:01:03.431Z,-2.10
2019-01-18T06:03:31.128Z,-1.90
2019-01-18T06:05:58.827Z,-2.10
2019-01-18T06:08:26.487Z,-2.10
2019-01-18T06:10:54.158Z,-1.80
2019-01-18T06:13:21.834Z,-2.10
2019-01-18T06:15:49.480Z,-2.00
2019-01-18T06:18:17.270Z,-1.80
2019-01-18T06:20:44.866Z,-2.10
2019-01-18T06:23:12.527Z,-2.00
2019-01-18T06:25:40.182Z,-2.00
2019-01-18T06:28:07.975Z,-2.00
2019-01-18T06:30:35.613Z,-1.90
2019-01-18T06:33:03.470Z,-1.90
2019-01-18T06:35:31.249Z,-1.80
2019-01-18T06:37:58.900Z,-1.80
2019-01-18T06:40:26.526Z,-1.80
2019-01-18T06:42:54.219Z,-1.80
2019-01-18T06:45:22.239Z,-1.80
2019-01-18T06:47:49.906Z,-1.70
2019-01-18T06:50:18.448Z,-1.70
2019-01-18T06:52:46.159Z,-1.60
2019-01-18T06:55:13.805Z,-1.60
2019-01-18T06:57:41.517Z,-1.50
2019-01-18T07:00:18.351Z,-1.50
2019-01-18T07:02:46.141Z,-1.50
2019-01-18T07:05:13.812Z,-1.40
2019-01-18T07:07:41.471Z,-1.40
2019-01-18T07:10:11.386Z,-1.30
2019-01-18T07:12:39.013Z,-1.30
2019-01-18T07:15:08.806Z,-1.30
2019-01-18T07:17:36.586Z,-1.30
2019-01-18T07:20:04.575Z,-1.30
2019-01-18T07:22:32.228Z,-1.10
2019-01-18T07:24:59.903Z,-1.30
2019-01-18T07:27:27.535Z,-1.20
2019-01-18T07:29:55.196Z,-1.10
2019-01-18T07:32:22.833Z,-1.20
2019-01-18T07:34:50.647Z,-1.20
2019-01-18T07:37:18.272Z,-1.30
2019-01-18T07:39:45.914Z,-1.30
2019-01-18T07:42:13.552Z,-1.30
2019-01-18T07:44:41.232Z,-1.30
2019-01-18T07:47:08.843Z,-1.30
2019-01-18T07:49:36.495Z,-1.30
2019-01-18T07:52:04.287Z,-1.30
2019-01-18T07:54:31.952Z,-1.40
2019-01-18T07:56:59.607Z,-1.40
2019-01-18T07:59:27.415Z,-1.40
2019-01-18T08:01:55.076Z,-1.40
2019-01-18T08:04:22.731Z,-1.30
2019-01-18T08:06:50.430Z,-1.40
2019-01-18T08:09:18.106Z,-1.40
2019-01-18T08:11:45.789Z,-1.40
2019-01-18T08:14:13.474Z,-1.40
2019-01-18T08:16:41.115Z,-1.10
2019-01-18T08:19:08.812Z,-1.40
2019-01-18T08:21:36.461Z,-1.40
2019-01-18T08:24:04.210Z,-1.40
2019-01-18T08:26:31.843Z,-1.30
2019-01-18T08:28:59.493Z,-1.20
2019-01-18T08:31:29.006Z,-1.20
2019-01-18T08:33:56.628Z,-1.00
2019-01-18T08:36:24.419Z,-1.00
2019-01-18T08:38:52.051Z,-0.80
2019-01-18T08:41:19.721Z,-0.20
2019-01-18T08:43:47.381Z,-0.60
2019-01-18T08:46:16.021Z,-0.50
2019-01-18T08:48:43.675Z,-0.50
2019-01-18T08:51:11.351Z,-0.40
2019-01-18T08:53:39.042Z,-0.30
2019-01-18T08:56:07.592Z,-0.30
2019-01-18T08:58:35.290Z,0.10
2019-01-18T09:01:03.034Z,-0.10
2019-01-18T09:03:30.739Z,0.00
2019-01-18T09:05:58.443Z,0.00
2019-01-18T09:08:26.116Z,0.00
2019-01-18T09:10:53.766Z,0.10
2019-01-18T09:13:21.471Z,0.10
2019-01-18T09:15:49.185Z,0.10
2019-01-18T09:18:16.804Z,0.20
2019-01-18T09:20:44.436Z,0.30
2019-01-18T09:23:12.216Z,0.30
2019-01-18T09:25:39.847Z,0.40
2019-01-18T09:28:07.581Z,0.50
2019-01-18T09:30:35.359Z,0.60
2019-01-18T09:33:05.199Z,0.70
2019-01-18T09:35:33.270Z,0.80
2019-01-18T09:38:00.920Z,0.80
2019-01-18T09:40:30.348Z,0.90
2019-01-18T09:42:58.208Z,0.80
2019-01-18T09:45:25.900Z,0.80
2019-01-18T09:47:53.594Z,0.80
2019-01-18T09:50:23.551Z,0.80
2019-01-18T09:52:51.241Z,0.80
2019-01-18T09:55:18.952Z,0.90
2019-01-18T09:57:46.763Z,1.00
2019-01-18T10:00:19.468Z,1.10
2019-01-18T10:02:47.139Z,1.10
2019-01-18T10:05:14.912Z,1.20
2019-01-18T10:07:42.574Z,1.30
2019-01-18T10:10:13.031Z,1.40
2019-01-18T10:12:41.040Z,1.40
2019-01-18T10:15:11.448Z,1.50
2019-01-18T10:17:39.074Z,1.50
2019-01-18T10:20:09.188Z,1.60
2019-01-18T10:22:36.871Z,1.60
2019-01-18T10:25:05.247Z,1.70
2019-01-18T10:27:32.954Z,1.80
2019-01-18T10:30:00.603Z,1.90
2019-01-18T10:32:28.588Z,1.90
2019-01-18T10:34:56.265Z,2.00
2019-01-18T10:37:23.903Z,2.10
2019-01-18T10:39:51.543Z,2.10
2019-01-18T10:42:19.164Z,2.10
2019-01-18T10:44:46.840Z,2.20
2019-01-18T10:47:14.535Z,2.20
2019-01-18T10:49:42.195Z,2.30
2019-01-18T10:52:09.817Z,2.40
2019-01-18T10:54:37.542Z,2.50
2019-01-18T10:57:05.216Z,2.60
2019-01-18T10:59:32.852Z,2.70
2019-01-18T11:02:06.927Z,2.70
2019-01-18T11:04:30.017Z,2.80
2019-01-18T11:06:57.810Z,3.00
2019-01-18T11:09:25.436Z,3.00
2019-01-18T11:11:53.079Z,3.10
2019-01-18T11:14:20.716Z,3.10
2019-01-18T11:16:48.372Z,3.20
2019-01-18T11:19:16.027Z,3.30
2019-01-18T11:21:43.952Z,3.30
2019-01-18T11:24:11.563Z,3.50
2019-01-18T11:26:39.265Z,3.50
2019-01-18T11:29:06.955Z,3.60
2019-01-18T11:31:34.630Z,3.80
2019-01-18T11:34:02.522Z,3.90
2019-01-18T11:36:30.160Z,3.90
2019-01-18T11:38:57.784Z,3.90
2019-01-18T11:41:25.503Z,3.90
2019-01-18T11:43:53.246Z,3.80
2019-01-18T11:46:20.908Z,3.60
2019-01-18T11:48:50.354Z,3.60
2019-01-18T11:51:18.023Z,3.50
2019-01-18T11:53:45.651Z,3.60
2019-01-18T11:56:13.475Z,3.70
2019-01-18T11:58:41.124Z,3.70
2019-01-18T12:01:08.763Z,3.70
2019-01-18T12:03:36.424Z,3.70
2019-01-18T12:06:04.203Z,3.60
2019-01-18T12:08:31.885Z,3.60
2019-01-18T12:10:59.625Z,3.60
2019-01-18T12:13:27.260Z,3.60
2019-01-18T12:15:54.952Z,3.70
2019-01-18T12:18:22.615Z,3.80
2019-01-18T12:20:50.456Z,3.80
2019-01-18T12:23:18.128Z,4.00
2019-01-18T12:25:45.759Z,4.10
2019-01-18T12:28:13.457Z,4.20
2019-01-18T12:30:41.109Z,4.20
2019-01-18T12:33:08.770Z,4.20
2019-01-18T12:35:36.479Z,4.20
2019-01-18T12:38:04.318Z,4.30
2019-01-18T12:40:32.216Z,4.30
2019-01-18T12:42:59.943Z,4.40
2019-01-18T12:45:27.580Z,4.50
2019-01-18T12:47:55.247Z,4.50
2019-01-18T12:50:25.575Z,4.60
2019-01-18T12:52:53.328Z,4.70
2019-01-18T12:55:21.017Z,4.70
2019-01-18T12:57:48.803Z,4.70
2019-01-18T13:00:18.555Z,4.70
2019-01-18T13:02:46.259Z,4.80
2019-01-18T13:05:16.884Z,4.80
2019-01-18T13:07:45.035Z,4.80
2019-01-18T13:10:12.790Z,4.80
2019-01-18T13:12:40.429Z,4.80
2019-01-18T13:15:12.477Z,4.80
2019-01-18T13:17:40.124Z,4.60
2019-01-18T13:20:08.918Z,4.50
2019-01-18T13:22:36.544Z,4.30
2019-01-18T13:25:07.114Z,4.20
2019-01-18T13:27:34.752Z,4.10
2019-01-18T13:30:02.672Z,4.00
2019-01-18T13:32:30.334Z,3.90
2019-01-18T13:34:57.982Z,3.80
2019-01-18T13:37:25.656Z,3.80
2019-01-18T13:39:53.335Z,3.80
2019-01-18T13:42:20.967Z,3.80
2019-01-18T13:44:48.652Z,3.90
2019-01-18T13:47:18.364Z,3.90
2019-01-18T13:49:45.743Z,3.90
2019-01-18T13:52:13.419Z,3.90
2019-01-18T13:54:41.051Z,3.90
2019-01-18T13:57:12.274Z,3.90
2019-01-18T13:59:38.352Z,3.90
2019-01-18T14:02:06.102Z,3.90
2019-01-18T14:04:33.823Z,3.90
2019-01-18T14:07:01.481Z,3.90
2019-01-18T14:09:29.263Z,3.90
2019-01-18T14:11:56.976Z,4.00
2019-01-18T14:14:24.651Z,4.00
2019-01-18T14:16:52.329Z,4.00
2019-01-18T14:19:20.038Z,4.00
2019-01-18T14:21:47.701Z,4.00
2019-01-18T14:24:15.403Z,4.00
2019-01-18T14:26:43.046Z,4.00
2019-01-18T14:29:10.724Z,4.00
2019-01-18T14:31:38.431Z,4.10
2019-01-18T14:34:06.086Z,4.10
2019-01-18T14:36:33.759Z,4.10
2019-01-18T14:39:01.508Z,4.10
2019-01-18T14:41:31.033Z,4.10
2019-01-18T14:43:58.632Z,4.10
2019-01-18T14:46:26.317Z,4.00
2019-01-18T14:48:53.941Z,3.90
2019-01-18T14:51:21.611Z,3.90
2019-01-18T14:53:49.269Z,3.80
2019-01-18T14:56:16.970Z,3.80
2019-01-18T14:58:44.607Z,3.80
2019-01-18T15:01:12.485Z,3.70
2019-01-18T15:03:40.143Z,3.60
2019-01-18T15:06:07.910Z,3.60
2019-01-18T15:08:35.575Z,3.60
2019-01-18T15:11:03.536Z,3.50
2019-01-18T15:13:31.320Z,3.50
2019-01-18T15:15:58.959Z,3.50
2019-01-18T15:18:26.627Z,3.40
2019-01-18T15:20:54.284Z,3.40
2019-01-18T15:23:21.932Z,3.30
2019-01-18T15:25:49.636Z,3.30
2019-01-18T15:28:17.287Z,3.20
2019-01-18T15:30:44.960Z,3.20
2019-01-18T15:33:12.663Z,3.10
2019-01-18T15:35:40.328Z,3.10
2019-01-18T15:38:09.612Z,3.10
2019-01-18T15:40:40.672Z,3.00
2019-01-18T15:43:08.533Z,3.00
2019-01-18T15:45:36.192Z,3.00
2019-01-18T15:48:03.950Z,3.00
2019-01-18T15:50:33.773Z,2.90
2019-01-18T15:53:01.426Z,2.90
2019-01-18T15:55:29.076Z,2.90
2019-01-18T15:57:56.746Z,2.90
2019-01-18T16:00:29.308Z,2.90
2019-01-18T16:02:57.098Z,2.90
2019-01-18T16:05:24.838Z,2.90
2019-01-18T16:07:52.616Z,2.80
2019-01-18T16:10:20.300Z,2.80
2019-01-18T16:12:47.937Z,2.80
2019-01-18T16:15:16.112Z,2.80
2019-01-18T16:17:44.623Z,2.70
2019-01-18T16:20:14.448Z,2.70
2019-01-18T16:22:42.243Z,2.70
2019-01-18T16:25:26.750Z,2.70
2019-01-18T16:27:54.430Z,2.60
2019-01-18T16:30:22.185Z,2.50
2019-01-18T16:32:49.976Z,2.50
2019-01-18T16:35:18.276Z,2.40
2019-01-18T16:37:46.586Z,2.30
2019-01-18T16:40:16.919Z,2.30
2019-01-18T16:42:46.552Z,2.30
2019-01-18T16:45:14.564Z,2.20
2019-01-18T16:47:42.244Z,2.20
2019-01-18T16:50:10.863Z,2.20
2019-01-18T16:52:38.520Z,2.20
2019-01-18T16:55:07.602Z,2.20
2019-01-18T16:57:35.219Z,2.20
2019-01-18T17:00:04.256Z,2.10
2019-01-18T17:02:31.935Z,2.10
2019-01-18T17:04:59.609Z,2.10
2019-01-18T17:07:27.313Z,2.10
2019-01-18T17:09:55.024Z,2.00
2019-01-18T17:12:22.627Z,2.00
2019-01-18T17:14:50.302Z,2.00
2019-01-18T17:17:17.978Z,2.00
2019-01-18T17:19:45.592Z,2.00
2019-01-18T17:22:13.307Z,2.00
2019-01-18T17:24:41.062Z,2.00
2019-01-18T17:27:08.709Z,2.00
2019-01-18T17:29:36.356Z,2.00
2019-01-18T17:32:04.007Z,2.00
2019-01-18T17:34:31.663Z,1.90
2019-01-18T17:37:04.299Z,1.90
2019-01-18T17:39:54.192Z,1.90
2019-01-18T17:43:15.333Z,1.90
2019-01-18T17:46:31.947Z,1.90
2019-01-18T17:49:45.675Z,1.80
2019-01-18T17:52:45.080Z,1.80
2019-01-18T17:55:42.201Z,1.80
2019-01-18T17:58:28.776Z,1.80
2019-01-18T18:01:50.037Z,1.80
2019-01-18T18:04:36.109Z,1.80
2019-01-18T18:07:23.808Z,1.80
2019-01-18T18:10:15.573Z,1.80
2019-01-18T18:13:22.773Z,1.80
2019-01-18T18:16:34.122Z,1.80
2019-01-18T18:20:06.391Z,1.80
2019-01-18T18:22:56.143Z,1.80
2019-01-18T18:25:48.568Z,1.80
2019-01-18T18:29:04.112Z,1.80
2019-01-18T18:32:13.698Z,1.80
2019-01-18T18:35:23.419Z,1.80
2019-01-18T18:38:30.093Z,1.80
2019-01-18T18:41:33.626Z,1.80
2019-01-18T18:44:38.606Z,1.90
2019-01-18T18:47:41.779Z,1.90
2019-01-18T18:50:48.008Z,1.90
2019-01-18T18:53:46.471Z,1.90
2019-01-18T18:57:03.666Z,1.90
2019-01-18T18:59:46.162Z,1.90
2019-01-18T19:02:27.486Z,1.90
2019-01-18T19:05:37.648Z,1.90
2019-01-18T19:08:38.435Z,1.80
2019-01-18T19:11:34.287Z,1.80
2019-01-18T19:14:20.823Z,1.70
2019-01-18T19:17:14.409Z,1.70
2019-01-18T19:20:22.453Z,1.60
2019-01-18T19:23:49.801Z,1.50
2019-01-18T19:27:29.040Z,1.50
2019-01-18T19:30:41.353Z,1.40
2019-01-18T19:33:34.492Z,1.30
2019-01-18T19:36:37.024Z,1.30
2019-01-18T19:39:29.331Z,1.20
2019-01-18T19:42:41.885Z,1.20
2019-01-18T19:45:35.198Z,1.10
2019-01-18T19:48:32.868Z,1.10
2019-01-18T19:51:53.892Z,1.10
2019-01-18T19:55:11.979Z,1.00
2019-01-18T19:58:45.532Z,1.00
2019-01-18T20:01:56.181Z,1.00
2019-01-18T20:05:02.865Z,1.00
2019-01-18T20:08:01.819Z,0.90
2019-01-18T20:11:18.935Z,0.90
2019-01-18T20:14:26.740Z,0.90
2019-01-18T20:17:22.190Z,0.80
2019-01-18T20:20:34.943Z,0.80
2019-01-18T20:23:30.309Z,0.80
2019-01-18T20:26:29.926Z,0.70
2019-01-18T20:29:29.550Z,0.80
2019-01-18T20:32:40.771Z,0.70
2019-01-18T20:35:55.333Z,0.80
2019-01-18T20:39:10.445Z,0.80
2019-01-18T20:42:35.940Z,0.80
2019-01-18T20:45:43.094Z,0.80
2019-01-18T20:49:04.373Z,0.80
2019-01-18T20:52:12.207Z,0.80
2019-01-18T20:55:18.215Z,0.80
2019-01-18T20:58:22.586Z,0.70
2019-01-18T21:01:35.512Z,0.70
2019-01-18T21:04:50.861Z,0.70
2019-01-18T21:08:04.431Z,0.70
2019-01-18T21:11:00.748Z,0.60
2019-01-18T21:13:59.777Z,0.60
2019-01-18T21:17:12.335Z,0.60
2019-01-18T21:20:31.490Z,0.50
2019-01-18T21:23:21.628Z,0.40
2019-01-18T21:26:24.565Z,0.30
2019-01-18T21:29:22.630Z,0.20
2019-01-18T21:32:21.537Z,0.20
2019-01-18T21:35:10.071Z,0.10
2019-01-18T21:38:28.421Z,0.00
2019-01-18T21:41:17.709Z,-0.10
2019-01-18T21:44:27.074Z,-0.20
2019-01-18T21:47:06.776Z,-0.30
2019-01-18T21:50:01.296Z,-0.40
2019-01-18T21:53:09.638Z,-0.40
2019-01-18T21:55:43.905Z,-0.40
2019-01-18T21:58:39.370Z,-0.10
2019-01-18T22:02:01.156Z,-0.60
2019-01-18T22:04:42.544Z,-0.70
2019-01-18T22:07:53.951Z,-0.50
2019-01-18T22:10:39.878Z,-0.80
2019-01-18T22:13:38.792Z,-0.90
2019-01-18T22:16:46.783Z,-0.90
2019-01-18T22:19:51.746Z,-1.00
2019-01-18T22:23:13.166Z,-1.10
2019-01-18T22:26:29.037Z,-1.10
2019-01-18T22:29:27.959Z,-1.20
2019-01-18T22:32:21.459Z,-1.20
2019-01-18T22:35:25.407Z,-1.20
2019-01-18T22:38:25.234Z,-1.00
2019-01-18T22:41:31.153Z,-1.30
2019-01-18T22:44:50.477Z,-1.30
2019-01-18T22:47:52.442Z,-1.30
2019-01-18T22:50:59.636Z,-1.40
2019-01-18T22:53:57.156Z,-1.40
2019-01-18T22:57:06.802Z,-1.40
2019-01-18T23:00:33.118Z,-1.40
2019-01-18T23:03:24.372Z,-1.50
2019-01-18T23:06:32.634Z,-1.50
2019-01-18T23:09:45.087Z,-1.50
2019-01-18T23:12:40.667Z,-1.50
2019-01-18T23:15:44.881Z,-1.60
2019-01-18T23:18:52.119Z,-1.60
2019-01-18T23:22:04.739Z,-1.70
2019-01-18T23:24:53.356Z,-1.80
2019-01-18T23:28:10.378Z,-1.80
2019-01-18T23:30:57.008Z,-1.90
2019-01-18T23:34:09.441Z,-2.00
2019-01-18T23:37:09.066Z,-2.00
2019-01-18T23:39:57.626Z,-2.00
2019-01-18T23:43:21.543Z,-2.10
2019-01-18T23:46:25.303Z,-2.10
2019-01-18T23:49:16.003Z,-2.20
2019-01-18T23:52:36.992Z,-1.90
2019-01-18T23:55:51.489Z,-2.30
2019-01-18T23:58:49.188Z,-2.30
